sensor_id;sensor_type;location;lat;lon;timestamp;P1;durP1;ratioP1;P2;durP2;ratioP2
67997;SDS011;54773;53.388;-1.504;2023-02-28T00:02:16;9.82;;;5.85;;
67997;SDS011;54773;53.388;-1.504;2023-02-28T00:04:42;12.55;;;6.93;;
67997;SDS011;54773;53.388;-1.504;2023-02-28T00:07:08;9.98;;;5.70;;
67997;SDS011;54773;53.388;-1.504;2023-02-28T00:09:34;14.05;;;6.18;;
67997;SDS011;54773;53.388;-1.504;2023-02-28T00:12:00;9.43;;;5.78;;
67997;SDS011;54773;53.388;-1.504;2023-02-28T00:14:29;9.80;;;6.00;;
67997;SDS011;54773;53.388;-1.504;2023-02-28T00:16:55;8.70;;;5.18;;
67997;SDS011;54773;53.388;-1.504;2023-02-28T00:19:20;12.82;;;7.25;;
67997;SDS011;54773;53.388;-1.504;2023-02-28T00:21:46;14.98;;;8.40;;
67997;SDS011;54773;53.388;-1.504;2023-02-28T00:24:11;17.15;;;10.48;;
67997;SDS011;54773;53.388;-1.504;2023-02-28T00:26:37;21.48;;;13.45;;
67997;SDS011;54773;53.388;-1.504;2023-02-28T00:29:02;19.70;;;13.27;;
67997;SDS011;54773;53.388;-1.504;2023-02-28T00:31:27;24.10;;;13.30;;
67997;SDS011;54773;53.388;-1.504;2023-02-28T00:33:53;22.23;;;12.38;;
67997;SDS011;54773;53.388;-1.504;2023-02-28T00:36:21;22.83;;;11.90;;
67997;SDS011;54773;53.388;-1.504;2023-02-28T00:38:53;19.58;;;11.25;;
67997;SDS011;54773;53.388;-1.504;2023-02-28T00:41:19;21.48;;;12.00;;
67997;SDS011;54773;53.388;-1.504;2023-02-28T00:43:44;23.25;;;12.70;;
67997;SDS011;54773;53.388;-1.504;2023-02-28T00:46:10;23.08;;;12.40;;
67997;SDS011;54773;53.388;-1.504;2023-02-28T00:48:35;22.80;;;12.90;;
67997;SDS011;54773;53.388;-1.504;2023-02-28T00:51:01;23.15;;;12.90;;
67997;SDS011;54773;53.388;-1.504;2023-02-28T00:53:27;23.35;;;12.52;;
67997;SDS011;54773;53.388;-1.504;2023-02-28T00:55:53;21.00;;;10.10;;
67997;SDS011;54773;53.388;-1.504;2023-02-28T00:58:18;17.08;;;9.60;;
67997;SDS011;54773;53.388;-1.504;2023-02-28T01:00:44;16.17;;;9.70;;
67997;SDS011;54773;53.388;-1.504;2023-02-28T01:03:14;15.02;;;7.97;;
67997;SDS011;54773;53.388;-1.504;2023-02-28T01:05:40;12.57;;;6.55;;
67997;SDS011;54773;53.388;-1.504;2023-02-28T01:08:06;11.95;;;7.20;;
67997;SDS011;54773;53.388;-1.504;2023-02-28T01:10:32;11.20;;;6.30;;
67997;SDS011;54773;53.388;-1.504;2023-02-28T01:12:57;8.88;;;5.13;;
67997;SDS011;54773;53.388;-1.504;2023-02-28T01:15:23;8.68;;;5.40;;
67997;SDS011;54773;53.388;-1.504;2023-02-28T01:17:48;10.30;;;5.25;;
67997;SDS011;54773;53.388;-1.504;2023-02-28T01:20:14;9.45;;;5.80;;
67997;SDS011;54773;53.388;-1.504;2023-02-28T01:22:39;11.70;;;6.63;;
67997;SDS011;54773;53.388;-1.504;2023-02-28T01:25:05;10.85;;;6.15;;
67997;SDS011;54773;53.388;-1.504;2023-02-28T01:27:30;9.63;;;6.00;;
67997;SDS011;54773;53.388;-1.504;2023-02-28T01:29:56;15.52;;;6.68;;
67997;SDS011;54773;53.388;-1.504;2023-02-28T01:32:21;8.50;;;6.07;;
67997;SDS011;54773;53.388;-1.504;2023-02-28T01:34:47;10.40;;;5.68;;
67997;SDS011;54773;53.388;-1.504;2023-02-28T01:37:12;11.32;;;6.70;;
67997;SDS011;54773;53.388;-1.504;2023-02-28T01:39:37;8.75;;;6.57;;
67997;SDS011;54773;53.388;-1.504;2023-02-28T01:42:03;9.95;;;6.35;;
67997;SDS011;54773;53.388;-1.504;2023-02-28T01:47:26;13.18;;;6.00;;
67997;SDS011;54773;53.388;-1.504;2023-02-28T01:49:54;9.52;;;5.53;;
67997;SDS011;54773;53.388;-1.504;2023-02-28T01:52:19;7.93;;;5.05;;
67997;SDS011;54773;53.388;-1.504;2023-02-28T01:54:46;7.75;;;5.07;;
67997;SDS011;54773;53.388;-1.504;2023-02-28T01:57:17;7.97;;;4.50;;
67997;SDS011;54773;53.388;-1.504;2023-02-28T01:59:48;12.73;;;4.93;;
67997;SDS011;54773;53.388;-1.504;2023-02-28T02:02:18;9.55;;;4.22;;
67997;SDS011;54773;53.388;-1.504;2023-02-28T02:04:46;8.75;;;4.50;;
67997;SDS011;54773;53.388;-1.504;2023-02-28T02:07:26;6.22;;;3.35;;
67997;SDS011;54773;53.388;-1.504;2023-02-28T02:10:02;6.57;;;3.20;;
67997;SDS011;54773;53.388;-1.504;2023-02-28T02:12:45;6.20;;;2.83;;
67997;SDS011;54773;53.388;-1.504;2023-02-28T02:15:22;6.80;;;2.72;;
67997;SDS011;54773;53.388;-1.504;2023-02-28T02:17:54;5.82;;;2.33;;
67997;SDS011;54773;53.388;-1.504;2023-02-28T02:42:19;12.38;;;6.43;;
67997;SDS011;54773;53.388;-1.504;2023-02-28T02:44:58;15.18;;;7.60;;
67997;SDS011;54773;53.388;-1.504;2023-02-28T02:47:27;15.32;;;8.57;;
67997;SDS011;54773;53.388;-1.504;2023-02-28T02:49:55;15.48;;;8.27;;
67997;SDS011;54773;53.388;-1.504;2023-02-28T02:52:23;15.93;;;7.88;;
67997;SDS011;54773;53.388;-1.504;2023-02-28T02:54:54;13.57;;;8.02;;
67997;SDS011;54773;53.388;-1.504;2023-02-28T02:57:29;14.10;;;8.00;;
67997;SDS011;54773;53.388;-1.504;2023-02-28T02:59:57;16.45;;;8.20;;
67997;SDS011;54773;53.388;-1.504;2023-02-28T03:02:24;16.15;;;8.18;;
67997;SDS011;54773;53.388;-1.504;2023-02-28T03:04:56;15.93;;;7.78;;
67997;SDS011;54773;53.388;-1.504;2023-02-28T03:07:25;14.90;;;7.75;;
67997;SDS011;54773;53.388;-1.504;2023-02-28T03:09:52;13.65;;;6.80;;
67997;SDS011;54773;53.388;-1.504;2023-02-28T03:12:18;15.63;;;6.78;;
67997;SDS011;54773;53.388;-1.504;2023-02-28T03:14:55;15.55;;;6.35;;
67997;SDS011;54773;53.388;-1.504;2023-02-28T03:25:14;8.80;;;4.68;;
67997;SDS011;54773;53.388;-1.504;2023-02-28T03:32:52;8.73;;;4.30;;
67997;SDS011;54773;53.388;-1.504;2023-02-28T03:35:26;10.60;;;5.18;;
67997;SDS011;54773;53.388;-1.504;2023-02-28T03:38:07;9.55;;;4.97;;
67997;SDS011;54773;53.388;-1.504;2023-02-28T03:40:39;10.13;;;5.20;;
67997;SDS011;54773;53.388;-1.504;2023-02-28T03:43:09;11.45;;;5.63;;
67997;SDS011;54773;53.388;-1.504;2023-02-28T03:45:37;9.35;;;5.47;;
67997;SDS011;54773;53.388;-1.504;2023-02-28T03:50:36;10.63;;;5.55;;
67997;SDS011;54773;53.388;-1.504;2023-02-28T03:55:33;11.43;;;5.85;;
67997;SDS011;54773;53.388;-1.504;2023-02-28T03:58:04;11.95;;;5.95;;
67997;SDS011;54773;53.388;-1.504;2023-02-28T04:00:35;11.25;;;6.07;;
67997;SDS011;54773;53.388;-1.504;2023-02-28T04:03:04;16.13;;;7.22;;
67997;SDS011;54773;53.388;-1.504;2023-02-28T04:05:29;14.85;;;7.28;;
67997;SDS011;54773;53.388;-1.504;2023-02-28T04:08:02;16.75;;;7.88;;
67997;SDS011;54773;53.388;-1.504;2023-02-28T04:10:29;15.48;;;7.30;;
67997;SDS011;54773;53.388;-1.504;2023-02-28T04:12:54;17.48;;;8.73;;
67997;SDS011;54773;53.388;-1.504;2023-02-28T04:15:20;16.95;;;8.77;;
67997;SDS011;54773;53.388;-1.504;2023-02-28T04:17:47;17.10;;;8.35;;
67997;SDS011;54773;53.388;-1.504;2023-02-28T04:20:13;18.35;;;8.82;;
67997;SDS011;54773;53.388;-1.504;2023-02-28T04:22:38;22.27;;;9.88;;
67997;SDS011;54773;53.388;-1.504;2023-02-28T04:25:04;21.40;;;10.30;;
67997;SDS011;54773;53.388;-1.504;2023-02-28T04:27:30;21.77;;;9.70;;
67997;SDS011;54773;53.388;-1.504;2023-02-28T04:29:56;19.00;;;8.68;;
67997;SDS011;54773;53.388;-1.504;2023-02-28T04:32:21;17.30;;;8.25;;
67997;SDS011;54773;53.388;-1.504;2023-02-28T04:34:46;15.20;;;7.25;;
67997;SDS011;54773;53.388;-1.504;2023-02-28T04:37:12;16.58;;;7.13;;
67997;SDS011;54773;53.388;-1.504;2023-02-28T04:39:37;15.13;;;7.00;;
67997;SDS011;54773;53.388;-1.504;2023-02-28T04:42:03;13.55;;;6.22;;
67997;SDS011;54773;53.388;-1.504;2023-02-28T04:44:29;14.85;;;6.40;;
67997;SDS011;54773;53.388;-1.504;2023-02-28T04:46:54;12.18;;;6.03;;
67997;SDS011;54773;53.388;-1.504;2023-02-28T04:49:19;14.95;;;6.97;;
67997;SDS011;54773;53.388;-1.504;2023-02-28T04:51:45;16.13;;;7.80;;
67997;SDS011;54773;53.388;-1.504;2023-02-28T04:54:10;12.75;;;5.90;;
67997;SDS011;54773;53.388;-1.504;2023-02-28T04:56:36;16.98;;;7.40;;
67997;SDS011;54773;53.388;-1.504;2023-02-28T04:59:01;14.77;;;7.20;;
67997;SDS011;54773;53.388;-1.504;2023-02-28T05:01:33;15.80;;;7.40;;
67997;SDS011;54773;53.388;-1.504;2023-02-28T05:04:00;15.40;;;7.32;;
67997;SDS011;54773;53.388;-1.504;2023-02-28T05:06:27;14.23;;;6.97;;
67997;SDS011;54773;53.388;-1.504;2023-02-28T05:08:53;15.55;;;7.65;;
67997;SDS011;54773;53.388;-1.504;2023-02-28T05:13:46;13.50;;;6.50;;
67997;SDS011;54773;53.388;-1.504;2023-02-28T05:16:11;13.85;;;6.20;;
67997;SDS011;54773;53.388;-1.504;2023-02-28T05:18:37;13.30;;;6.13;;
67997;SDS011;54773;53.388;-1.504;2023-02-28T05:21:03;11.88;;;5.75;;
67997;SDS011;54773;53.388;-1.504;2023-02-28T05:23:29;11.88;;;5.18;;
67997;SDS011;54773;53.388;-1.504;2023-02-28T05:25:54;12.18;;;5.53;;
67997;SDS011;54773;53.388;-1.504;2023-02-28T05:28:20;10.75;;;4.80;;
67997;SDS011;54773;53.388;-1.504;2023-02-28T05:30:45;11.25;;;5.20;;
67997;SDS011;54773;53.388;-1.504;2023-02-28T05:33:11;14.32;;;5.80;;
67997;SDS011;54773;53.388;-1.504;2023-02-28T05:35:40;12.55;;;5.00;;
67997;SDS011;54773;53.388;-1.504;2023-02-28T05:38:07;13.15;;;5.22;;
67997;SDS011;54773;53.388;-1.504;2023-02-28T05:40:33;13.68;;;5.75;;
67997;SDS011;54773;53.388;-1.504;2023-02-28T05:42:59;12.77;;;5.65;;
67997;SDS011;54773;53.388;-1.504;2023-02-28T05:45:25;12.95;;;5.43;;
67997;SDS011;54773;53.388;-1.504;2023-02-28T05:47:53;10.82;;;4.90;;
67997;SDS011;54773;53.388;-1.504;2023-02-28T05:50:19;12.82;;;5.57;;
67997;SDS011;54773;53.388;-1.504;2023-02-28T05:52:48;12.40;;;5.18;;
67997;SDS011;54773;53.388;-1.504;2023-02-28T05:55:15;12.75;;;4.97;;
67997;SDS011;54773;53.388;-1.504;2023-02-28T05:57:40;9.30;;;4.90;;
67997;SDS011;54773;53.388;-1.504;2023-02-28T06:00:06;10.95;;;4.55;;
67997;SDS011;54773;53.388;-1.504;2023-02-28T06:02:32;9.77;;;4.32;;
67997;SDS011;54773;53.388;-1.504;2023-02-28T06:04:57;8.00;;;4.13;;
67997;SDS011;54773;53.388;-1.504;2023-02-28T06:07:22;10.93;;;4.75;;
67997;SDS011;54773;53.388;-1.504;2023-02-28T06:09:48;12.05;;;5.60;;
67997;SDS011;54773;53.388;-1.504;2023-02-28T06:12:13;11.63;;;5.32;;
67997;SDS011;54773;53.388;-1.504;2023-02-28T06:14:39;13.95;;;6.05;;
67997;SDS011;54773;53.388;-1.504;2023-02-28T06:17:05;12.50;;;5.25;;
67997;SDS011;54773;53.388;-1.504;2023-02-28T06:19:30;13.13;;;5.72;;
67997;SDS011;54773;53.388;-1.504;2023-02-28T06:21:56;11.23;;;4.70;;
67997;SDS011;54773;53.388;-1.504;2023-02-28T06:24:22;11.90;;;4.80;;
67997;SDS011;54773;53.388;-1.504;2023-02-28T06:26:49;12.85;;;5.38;;
67997;SDS011;54773;53.388;-1.504;2023-02-28T06:29:14;10.70;;;4.63;;
67997;SDS011;54773;53.388;-1.504;2023-02-28T06:31:44;11.13;;;5.45;;
67997;SDS011;54773;53.388;-1.504;2023-02-28T06:34:12;10.63;;;4.85;;
67997;SDS011;54773;53.388;-1.504;2023-02-28T06:36:39;14.63;;;5.60;;
67997;SDS011;54773;53.388;-1.504;2023-02-28T06:39:05;12.98;;;5.50;;
67997;SDS011;54773;53.388;-1.504;2023-02-28T06:41:31;16.17;;;5.78;;
67997;SDS011;54773;53.388;-1.504;2023-02-28T06:43:56;14.63;;;5.72;;
67997;SDS011;54773;53.388;-1.504;2023-02-28T06:46:22;12.00;;;5.07;;
67997;SDS011;54773;53.388;-1.504;2023-02-28T06:48:47;13.40;;;5.85;;
67997;SDS011;54773;53.388;-1.504;2023-02-28T06:51:14;11.25;;;5.15;;
67997;SDS011;54773;53.388;-1.504;2023-02-28T06:53:42;12.48;;;5.15;;
67997;SDS011;54773;53.388;-1.504;2023-02-28T06:56:08;13.98;;;5.00;;
67997;SDS011;54773;53.388;-1.504;2023-02-28T06:58:35;12.27;;;5.20;;
67997;SDS011;54773;53.388;-1.504;2023-02-28T07:01:01;12.27;;;5.30;;
67997;SDS011;54773;53.388;-1.504;2023-02-28T07:03:26;16.13;;;5.43;;
67997;SDS011;54773;53.388;-1.504;2023-02-28T07:05:52;12.57;;;4.90;;
67997;SDS011;54773;53.388;-1.504;2023-02-28T07:08:18;11.27;;;4.70;;
67997;SDS011;54773;53.388;-1.504;2023-02-28T07:10:43;18.02;;;5.50;;
67997;SDS011;54773;53.388;-1.504;2023-02-28T07:13:09;12.35;;;4.88;;
67997;SDS011;54773;53.388;-1.504;2023-02-28T07:15:35;10.07;;;4.22;;
67997;SDS011;54773;53.388;-1.504;2023-02-28T07:18:01;11.40;;;4.60;;
67997;SDS011;54773;53.388;-1.504;2023-02-28T07:20:28;10.70;;;4.68;;
67997;SDS011;54773;53.388;-1.504;2023-02-28T07:22:54;11.82;;;4.20;;
67997;SDS011;54773;53.388;-1.504;2023-02-28T07:25:23;11.27;;;4.65;;
67997;SDS011;54773;53.388;-1.504;2023-02-28T07:27:49;12.90;;;5.28;;
67997;SDS011;54773;53.388;-1.504;2023-02-28T07:30:14;9.98;;;3.83;;
67997;SDS011;54773;53.388;-1.504;2023-02-28T07:32:40;12.00;;;4.68;;
67997;SDS011;54773;53.388;-1.504;2023-02-28T07:35:06;9.57;;;3.72;;
67997;SDS011;54773;53.388;-1.504;2023-02-28T07:37:31;9.65;;;4.10;;
67997;SDS011;54773;53.388;-1.504;2023-02-28T07:40:05;6.18;;;3.10;;
67997;SDS011;54773;53.388;-1.504;2023-02-28T07:42:33;10.63;;;4.00;;
67997;SDS011;54773;53.388;-1.504;2023-02-28T07:44:59;9.43;;;4.22;;
67997;SDS011;54773;53.388;-1.504;2023-02-28T07:47:25;9.77;;;4.18;;
67997;SDS011;54773;53.388;-1.504;2023-02-28T07:49:51;8.25;;;4.03;;
67997;SDS011;54773;53.388;-1.504;2023-02-28T07:52:16;10.38;;;4.45;;
67997;SDS011;54773;53.388;-1.504;2023-02-28T07:54:42;8.50;;;3.53;;
67997;SDS011;54773;53.388;-1.504;2023-02-28T07:57:07;9.32;;;4.07;;
67997;SDS011;54773;53.388;-1.504;2023-02-28T07:59:33;11.93;;;3.97;;
67997;SDS011;54773;53.388;-1.504;2023-02-28T08:01:58;6.70;;;3.42;;
67997;SDS011;54773;53.388;-1.504;2023-02-28T08:04:24;9.57;;;4.20;;
67997;SDS011;54773;53.388;-1.504;2023-02-28T08:06:50;6.55;;;3.58;;
67997;SDS011;54773;53.388;-1.504;2023-02-28T08:09:17;6.28;;;3.40;;
67997;SDS011;54773;53.388;-1.504;2023-02-28T08:11:43;8.65;;;3.85;;
67997;SDS011;54773;53.388;-1.504;2023-02-28T08:14:09;9.27;;;3.90;;
67997;SDS011;54773;53.388;-1.504;2023-02-28T08:16:37;8.50;;;3.63;;
67997;SDS011;54773;53.388;-1.504;2023-02-28T08:19:03;10.88;;;5.00;;
67997;SDS011;54773;53.388;-1.504;2023-02-28T08:21:29;7.70;;;4.45;;
67997;SDS011;54773;53.388;-1.504;2023-02-28T08:23:54;11.80;;;4.82;;
67997;SDS011;54773;53.388;-1.504;2023-02-28T08:26:21;10.55;;;5.60;;
67997;SDS011;54773;53.388;-1.504;2023-02-28T08:28:48;10.90;;;6.00;;
67997;SDS011;54773;53.388;-1.504;2023-02-28T08:31:14;10.43;;;5.32;;
67997;SDS011;54773;53.388;-1.504;2023-02-28T08:33:41;9.73;;;5.10;;
67997;SDS011;54773;53.388;-1.504;2023-02-28T08:36:07;10.52;;;5.13;;
67997;SDS011;54773;53.388;-1.504;2023-02-28T08:38:34;8.93;;;5.10;;
67997;SDS011;54773;53.388;-1.504;2023-02-28T08:41:00;10.05;;;5.10;;
67997;SDS011;54773;53.388;-1.504;2023-02-28T08:43:27;8.75;;;4.68;;
67997;SDS011;54773;53.388;-1.504;2023-02-28T08:45:58;10.07;;;5.05;;
67997;SDS011;54773;53.388;-1.504;2023-02-28T08:48:24;10.32;;;4.90;;
67997;SDS011;54773;53.388;-1.504;2023-02-28T08:51:00;10.65;;;4.68;;
67997;SDS011;54773;53.388;-1.504;2023-02-28T08:53:27;12.50;;;4.30;;
67997;SDS011;54773;53.388;-1.504;2023-02-28T08:55:57;10.70;;;4.28;;
67997;SDS011;54773;53.388;-1.504;2023-02-28T08:58:23;9.95;;;4.13;;
67997;SDS011;54773;53.388;-1.504;2023-02-28T09:00:49;7.95;;;3.38;;
67997;SDS011;54773;53.388;-1.504;2023-02-28T09:03:15;7.40;;;3.70;;
67997;SDS011;54773;53.388;-1.504;2023-02-28T09:05:40;9.48;;;3.30;;
67997;SDS011;54773;53.388;-1.504;2023-02-28T09:08:06;9.95;;;3.80;;
67997;SDS011;54773;53.388;-1.504;2023-02-28T09:10:31;7.88;;;3.10;;
67997;SDS011;54773;53.388;-1.504;2023-02-28T09:12:57;8.38;;;4.10;;
67997;SDS011;54773;53.388;-1.504;2023-02-28T09:15:22;9.70;;;3.80;;
67997;SDS011;54773;53.388;-1.504;2023-02-28T09:17:48;6.40;;;3.45;;
67997;SDS011;54773;53.388;-1.504;2023-02-28T09:20:13;7.15;;;3.20;;
67997;SDS011;54773;53.388;-1.504;2023-02-28T09:22:39;4.93;;;2.80;;
67997;SDS011;54773;53.388;-1.504;2023-02-28T09:25:04;6.93;;;2.30;;
67997;SDS011;54773;53.388;-1.504;2023-02-28T09:27:30;6.32;;;3.08;;
67997;SDS011;54773;53.388;-1.504;2023-02-28T09:29:55;6.40;;;2.72;;
67997;SDS011;54773;53.388;-1.504;2023-02-28T09:32:21;7.25;;;2.47;;
67997;SDS011;54773;53.388;-1.504;2023-02-28T09:34:46;7.00;;;2.65;;
67997;SDS011;54773;53.388;-1.504;2023-02-28T09:37:11;5.78;;;2.40;;
67997;SDS011;54773;53.388;-1.504;2023-02-28T09:39:37;4.50;;;2.17;;
67997;SDS011;54773;53.388;-1.504;2023-02-28T09:42:02;6.82;;;2.95;;
67997;SDS011;54773;53.388;-1.504;2023-02-28T09:44:30;7.60;;;2.95;;
67997;SDS011;54773;53.388;-1.504;2023-02-28T09:47:07;5.25;;;2.65;;
67997;SDS011;54773;53.388;-1.504;2023-02-28T09:49:40;6.25;;;2.90;;
67997;SDS011;54773;53.388;-1.504;2023-02-28T09:52:18;5.50;;;3.05;;
67997;SDS011;54773;53.388;-1.504;2023-02-28T09:54:47;7.05;;;3.38;;
67997;SDS011;54773;53.388;-1.504;2023-02-28T10:00:03;7.10;;;3.53;;
67997;SDS011;54773;53.388;-1.504;2023-02-28T10:05:10;8.63;;;3.50;;
67997;SDS011;54773;53.388;-1.504;2023-02-28T10:07:42;6.97;;;3.60;;
67997;SDS011;54773;53.388;-1.504;2023-02-28T10:12:46;6.72;;;3.50;;
67997;SDS011;54773;53.388;-1.504;2023-02-28T10:15:15;8.38;;;3.65;;
67997;SDS011;54773;53.388;-1.504;2023-02-28T10:17:42;7.65;;;3.58;;
67997;SDS011;54773;53.388;-1.504;2023-02-28T10:20:14;7.40;;;3.42;;
67997;SDS011;54773;53.388;-1.504;2023-02-28T10:28:12;9.77;;;4.07;;
67997;SDS011;54773;53.388;-1.504;2023-02-28T10:30:42;7.72;;;3.97;;
67997;SDS011;54773;53.388;-1.504;2023-02-28T10:33:20;6.85;;;3.58;;
67997;SDS011;54773;53.388;-1.504;2023-02-28T10:35:48;5.82;;;2.83;;
67997;SDS011;54773;53.388;-1.504;2023-02-28T10:38:15;7.72;;;2.53;;
67997;SDS011;54773;53.388;-1.504;2023-02-28T10:40:46;5.00;;;2.75;;
67997;SDS011;54773;53.388;-1.504;2023-02-28T10:45:40;5.75;;;2.17;;
67997;SDS011;54773;53.388;-1.504;2023-02-28T10:53:24;6.07;;;3.65;;
67997;SDS011;54773;53.388;-1.504;2023-02-28T11:01:26;6.60;;;3.60;;
67997;SDS011;54773;53.388;-1.504;2023-02-28T11:03:58;10.32;;;4.50;;
67997;SDS011;54773;53.388;-1.504;2023-02-28T11:06:31;8.90;;;4.43;;
67997;SDS011;54773;53.388;-1.504;2023-02-28T11:08:59;7.97;;;4.13;;
67997;SDS011;54773;53.388;-1.504;2023-02-28T11:11:27;5.75;;;3.00;;
67997;SDS011;54773;53.388;-1.504;2023-02-28T11:13:54;7.13;;;2.80;;
67997;SDS011;54773;53.388;-1.504;2023-02-28T11:16:30;6.95;;;2.72;;
67997;SDS011;54773;53.388;-1.504;2023-02-28T11:18:57;5.38;;;2.30;;
67997;SDS011;54773;53.388;-1.504;2023-02-28T11:21:31;4.75;;;2.35;;
67997;SDS011;54773;53.388;-1.504;2023-02-28T11:24:04;4.15;;;2.10;;
67997;SDS011;54773;53.388;-1.504;2023-02-28T11:26:41;6.22;;;2.30;;
67997;SDS011;54773;53.388;-1.504;2023-02-28T11:29:11;6.75;;;2.72;;
67997;SDS011;54773;53.388;-1.504;2023-02-28T11:31:38;4.45;;;1.98;;
67997;SDS011;54773;53.388;-1.504;2023-02-28T11:34:10;4.63;;;2.00;;
67997;SDS011;54773;53.388;-1.504;2023-02-28T11:36:48;3.92;;;1.80;;
67997;SDS011;54773;53.388;-1.504;2023-02-28T11:39:14;4.75;;;2.15;;
67997;SDS011;54773;53.388;-1.504;2023-02-28T11:46:54;4.00;;;1.70;;
67997;SDS011;54773;53.388;-1.504;2023-02-28T11:49:30;3.30;;;1.63;;
67997;SDS011;54773;53.388;-1.504;2023-02-28T11:52:02;4.20;;;2.25;;
67997;SDS011;54773;53.388;-1.504;2023-02-28T11:57:44;3.85;;;2.00;;
67997;SDS011;54773;53.388;-1.504;2023-02-28T12:00:37;4.15;;;1.90;;
67997;SDS011;54773;53.388;-1.504;2023-02-28T12:03:23;5.10;;;1.85;;
67997;SDS011;54773;53.388;-1.504;2023-02-28T12:05:52;6.65;;;2.03;;
67997;SDS011;54773;53.388;-1.504;2023-02-28T12:08:52;6.28;;;2.80;;
67997;SDS011;54773;53.388;-1.504;2023-02-28T12:14:07;4.65;;;1.80;;
67997;SDS011;54773;53.388;-1.504;2023-02-28T12:19:20;4.55;;;1.55;;
67997;SDS011;54773;53.388;-1.504;2023-02-28T12:27:44;6.97;;;1.83;;
67997;SDS011;54773;53.388;-1.504;2023-02-28T12:32:46;4.80;;;1.98;;
67997;SDS011;54773;53.388;-1.504;2023-02-28T12:35:16;3.40;;;1.50;;
67997;SDS011;54773;53.388;-1.504;2023-02-28T12:37:46;4.13;;;1.70;;
67997;SDS011;54773;53.388;-1.504;2023-02-28T12:43:03;4.15;;;1.60;;
67997;SDS011;54773;53.388;-1.504;2023-02-28T12:45:49;4.60;;;1.70;;
67997;SDS011;54773;53.388;-1.504;2023-02-28T12:48:58;4.82;;;2.10;;
67997;SDS011;54773;53.388;-1.504;2023-02-28T12:51:24;4.22;;;1.73;;
67997;SDS011;54773;53.388;-1.504;2023-02-28T12:57:03;3.83;;;1.60;;
67997;SDS011;54773;53.388;-1.504;2023-02-28T12:59:37;4.80;;;2.60;;
67997;SDS011;54773;53.388;-1.504;2023-02-28T13:10:45;3.70;;;2.08;;
67997;SDS011;54773;53.388;-1.504;2023-02-28T13:13:17;4.68;;;2.60;;
67997;SDS011;54773;53.388;-1.504;2023-02-28T13:20:57;4.18;;;2.03;;
67997;SDS011;54773;53.388;-1.504;2023-02-28T13:26:17;3.70;;;2.05;;
67997;SDS011;54773;53.388;-1.504;2023-02-28T13:31:20;5.25;;;2.47;;
67997;SDS011;54773;53.388;-1.504;2023-02-28T13:36:30;4.70;;;2.58;;
67997;SDS011;54773;53.388;-1.504;2023-02-28T13:39:00;4.80;;;2.70;;
67997;SDS011;54773;53.388;-1.504;2023-02-28T13:44:13;4.05;;;2.40;;
67997;SDS011;54773;53.388;-1.504;2023-02-28T13:49:38;5.47;;;1.90;;
67997;SDS011;54773;53.388;-1.504;2023-02-28T14:00:05;8.82;;;3.63;;
67997;SDS011;54773;53.388;-1.504;2023-02-28T14:05:35;8.43;;;4.00;;
67997;SDS011;54773;53.388;-1.504;2023-02-28T14:08:06;6.40;;;3.00;;
67997;SDS011;54773;53.388;-1.504;2023-02-28T14:10:39;5.85;;;3.00;;
67997;SDS011;54773;53.388;-1.504;2023-02-28T14:13:12;6.05;;;2.92;;
67997;SDS011;54773;53.388;-1.504;2023-02-28T14:15:57;3.90;;;1.98;;
67997;SDS011;54773;53.388;-1.504;2023-02-28T14:18:29;5.18;;;2.35;;
67997;SDS011;54773;53.388;-1.504;2023-02-28T14:21:01;4.57;;;2.35;;
67997;SDS011;54773;53.388;-1.504;2023-02-28T14:31:29;5.88;;;3.03;;
67997;SDS011;54773;53.388;-1.504;2023-02-28T14:36:44;6.07;;;3.08;;
67997;SDS011;54773;53.388;-1.504;2023-02-28T14:39:13;5.60;;;2.83;;
67997;SDS011;54773;53.388;-1.504;2023-02-28T14:41:41;6.38;;;3.40;;
67997;SDS011;54773;53.388;-1.504;2023-02-28T14:44:15;4.93;;;2.80;;
67997;SDS011;54773;53.388;-1.504;2023-02-28T14:46:41;6.60;;;3.22;;
67997;SDS011;54773;53.388;-1.504;2023-02-28T14:49:27;5.63;;;2.80;;
67997;SDS011;54773;53.388;-1.504;2023-02-28T14:54:38;4.82;;;1.90;;
67997;SDS011;54773;53.388;-1.504;2023-02-28T14:57:03;4.60;;;2.42;;
67997;SDS011;54773;53.388;-1.504;2023-02-28T14:59:31;4.88;;;2.47;;
67997;SDS011;54773;53.388;-1.504;2023-02-28T15:02:14;8.20;;;2.40;;
67997;SDS011;54773;53.388;-1.504;2023-02-28T15:04:40;6.35;;;2.25;;
67997;SDS011;54773;53.388;-1.504;2023-02-28T15:07:07;4.95;;;2.10;;
67997;SDS011;54773;53.388;-1.504;2023-02-28T15:09:34;5.65;;;2.17;;
67997;SDS011;54773;53.388;-1.504;2023-02-28T15:11:59;7.57;;;2.40;;
67997;SDS011;54773;53.388;-1.504;2023-02-28T15:14:24;4.47;;;1.95;;
67997;SDS011;54773;53.388;-1.504;2023-02-28T15:16:55;5.18;;;2.40;;
67997;SDS011;54773;53.388;-1.504;2023-02-28T15:19:26;4.32;;;2.15;;
67997;SDS011;54773;53.388;-1.504;2023-02-28T15:27:04;6.13;;;2.10;;
67997;SDS011;54773;53.388;-1.504;2023-02-28T15:29:34;6.63;;;2.33;;
67997;SDS011;54773;53.388;-1.504;2023-02-28T15:32:14;6.63;;;3.35;;
67997;SDS011;54773;53.388;-1.504;2023-02-28T15:34:55;3.95;;;2.08;;
67997;SDS011;54773;53.388;-1.504;2023-02-28T15:37:26;5.78;;;2.72;;
67997;SDS011;54773;53.388;-1.504;2023-02-28T15:40:16;7.03;;;3.03;;
67997;SDS011;54773;53.388;-1.504;2023-02-28T15:45:32;6.30;;;1.90;;
67997;SDS011;54773;53.388;-1.504;2023-02-28T15:48:02;8.38;;;1.90;;
67997;SDS011;54773;53.388;-1.504;2023-02-28T15:50:28;3.80;;;1.40;;
67997;SDS011;54773;53.388;-1.504;2023-02-28T15:52:54;3.13;;;1.20;;
67997;SDS011;54773;53.388;-1.504;2023-02-28T15:57:47;5.63;;;2.65;;
67997;SDS011;54773;53.388;-1.504;2023-02-28T16:00:16;4.72;;;2.60;;
67997;SDS011;54773;53.388;-1.504;2023-02-28T16:02:44;5.88;;;2.47;;
67997;SDS011;54773;53.388;-1.504;2023-02-28T16:07:36;4.28;;;2.42;;
67997;SDS011;54773;53.388;-1.504;2023-02-28T16:10:05;6.35;;;2.58;;
67997;SDS011;54773;53.388;-1.504;2023-02-28T16:12:32;5.50;;;2.72;;
67997;SDS011;54773;53.388;-1.504;2023-02-28T16:15:05;8.02;;;2.53;;
67997;SDS011;54773;53.388;-1.504;2023-02-28T16:17:42;6.25;;;2.67;;
67997;SDS011;54773;53.388;-1.504;2023-02-28T16:20:21;4.63;;;3.03;;
67997;SDS011;54773;53.388;-1.504;2023-02-28T16:22:51;6.22;;;2.47;;
67997;SDS011;54773;53.388;-1.504;2023-02-28T16:25:17;5.43;;;2.63;;
67997;SDS011;54773;53.388;-1.504;2023-02-28T16:27:45;5.18;;;2.20;;
67997;SDS011;54773;53.388;-1.504;2023-02-28T16:30:22;6.15;;;1.88;;
67997;SDS011;54773;53.388;-1.504;2023-02-28T16:32:49;3.75;;;1.73;;
67997;SDS011;54773;53.388;-1.504;2023-02-28T16:35:15;4.35;;;1.83;;
67997;SDS011;54773;53.388;-1.504;2023-02-28T16:37:42;4.88;;;1.77;;
67997;SDS011;54773;53.388;-1.504;2023-02-28T16:40:18;5.32;;;2.15;;
67997;SDS011;54773;53.388;-1.504;2023-02-28T16:42:46;5.57;;;1.95;;
67997;SDS011;54773;53.388;-1.504;2023-02-28T16:45:21;5.00;;;2.20;;
67997;SDS011;54773;53.388;-1.504;2023-02-28T16:47:47;5.78;;;2.38;;
67997;SDS011;54773;53.388;-1.504;2023-02-28T16:50:18;3.97;;;1.95;;
67997;SDS011;54773;53.388;-1.504;2023-02-28T16:52:45;4.07;;;2.03;;
67997;SDS011;54773;53.388;-1.504;2023-02-28T16:55:11;6.05;;;3.20;;
67997;SDS011;54773;53.388;-1.504;2023-02-28T16:57:37;5.60;;;3.05;;
67997;SDS011;54773;53.388;-1.504;2023-02-28T17:00:04;6.25;;;3.20;;
67997;SDS011;54773;53.388;-1.504;2023-02-28T17:02:31;4.60;;;2.50;;
67997;SDS011;54773;53.388;-1.504;2023-02-28T17:04:56;4.60;;;2.80;;
67997;SDS011;54773;53.388;-1.504;2023-02-28T17:07:21;6.32;;;2.35;;
67997;SDS011;54773;53.388;-1.504;2023-02-28T17:09:47;5.50;;;2.30;;
67997;SDS011;54773;53.388;-1.504;2023-02-28T17:12:12;4.65;;;2.53;;
67997;SDS011;54773;53.388;-1.504;2023-02-28T17:14:39;6.60;;;2.10;;
67997;SDS011;54773;53.388;-1.504;2023-02-28T17:17:05;4.63;;;2.30;;
67997;SDS011;54773;53.388;-1.504;2023-02-28T17:19:34;6.93;;;2.60;;
67997;SDS011;54773;53.388;-1.504;2023-02-28T17:22:01;5.78;;;2.90;;